This is the latest recevied weather packets stored in our database for station/object KB1WCR. If no packets are shown the sender has not sent any weather packets the latest 1 day(s).
| Time | Temp. | Humidity | Pressure | Rain* | Wind** | Luminosity | Snow |
|---|---|---|---|---|---|---|---|
| 1777986362 | 17.78° C | 62% | 1008.4 hPa | 0 mm | 1.79 m/s, 209° | 602 W/m² | - |
| 1777986060 | 17.78° C | 62% | 1008.5 hPa | 0 mm | 0.89 m/s, 236° | 275 W/m² | - |
| 1777985756 | 18.33° C | 62% | 1008.5 hPa | 0 mm | 1.34 m/s, 250° | 243 W/m² | - |
| 1777985453 | 17.78° C | 63% | 1008.3 hPa | 0 mm | 1.79 m/s, 296° | 410 W/m² | - |
| 1777985150 | 17.22° C | 62% | 1008 hPa | 0 mm | 1.79 m/s, 234° | 496 W/m² | - |
| 1777984846 | 17.22° C | 64% | 1007.9 hPa | 0 mm | 0.89 m/s, 286° | 455 W/m² | - |
| 1777984542 | 16.67° C | 65% | 1007.8 hPa | 0 mm | 1.34 m/s, 216° | 473 W/m² | - |
| 1777984239 | 16.11° C | 68% | 1007.9 hPa | 0 mm | 0.89 m/s, 228° | 419 W/m² | - |
| 1777983936 | 16.11° C | 67% | 1007.9 hPa | 0 mm | 0.89 m/s, 222° | 367 W/m² | - |
| 1777983633 | 16.11° C | 65% | 1007.7 hPa | 0 mm | 1.79 m/s, 188° | 347 W/m² | - |
| 1777983329 | 15.56° C | 69% | 1007.7 hPa | 0 mm | 0.89 m/s, 197° | 334 W/m² | - |
| 1777983026 | 15.56° C | 68% | 1007.9 hPa | 0 mm | 0.89 m/s, 243° | 321 W/m² | - |
| 1777982722 | 15.56° C | 68% | 1008 hPa | 0 mm | 1.34 m/s, 204° | 295 W/m² | - |
| 1777982418 | 15° C | 69% | 1008 hPa | 0 mm | 0.45 m/s, 217° | 293 W/m² | - |
| 1777982113 | 15° C | 69% | 1008.2 hPa | 0 mm | 0.45 m/s, 226° | 277 W/m² | - |
| 1777981811 | 14.44° C | 69% | 1008.2 hPa | 0 mm | 1.34 m/s, 242° | 248 W/m² | - |
| 1777981508 | 14.44° C | 72% | 1008.3 hPa | 0 mm | 0.89 m/s, 209° | 202 W/m² | - |
| 1777981204 | 13.89° C | 71% | 1008.2 hPa | 0 mm | 0.89 m/s, 282° | 235 W/m² | - |
| 1777980900 | 13.89° C | 72% | 1008.2 hPa | 0 mm | 0.45 m/s, 256° | 229 W/m² | - |
| 1777980596 | 13.89° C | 72% | 1008.2 hPa | 0 mm | 0.89 m/s, 286° | 215 W/m² | - |
| 1777980293 | 13.89° C | 74% | 1008.5 hPa | 0 mm | 0 m/s | 196 W/m² | - |
| 1777979990 | 13.33° C | 74% | 1008.5 hPa | 0 mm | 0 m/s | 181 W/m² | - |
| 1777979684 | 12.78° C | 74% | 1008.5 hPa | 0 mm | 0.45 m/s, 240° | 163 W/m² | - |
| 1777979381 | 13.33° C | 75% | 1008.1 hPa | 0 mm | 0 m/s | 150 W/m² | - |
| 1777979078 | 12.78° C | 76% | 1008.4 hPa | 0 mm | 0 m/s | 136 W/m² | - |
* Rain latest hour (hover to see other rain measurements)
** Current wind speed in m/s (hover to see current wind gust speed)